This is the latest recevied weather packets stored in our database for station/object DO0SOB-11. If no packets are shown the sender has not sent any weather packets the latest 10 day(s).
| Time | Temp. | Humidity | Pressure | Rain* | Wind** | Luminosity | Snow |
|---|---|---|---|---|---|---|---|
| 1777508958 | 6.11° C | 82% | 989.3 hPa | - | - | - | - |
| 1777508058 | 6.11° C | 83% | 989.2 hPa | - | - | - | - |
| 1777507158 | 6.67° C | 76% | 989.3 hPa | - | - | - | - |
| 1777506258 | 6.67° C | 79% | 989.5 hPa | - | - | - | - |
| 1777505358 | 6.67° C | 82% | 989.5 hPa | - | - | - | - |
| 1777504458 | 6.67° C | 83% | 989.5 hPa | - | - | - | - |
| 1777503558 | 6.67° C | 87% | 989.4 hPa | - | - | - | - |
| 1777502658 | 7.22° C | 84% | 989.5 hPa | - | - | - | - |
| 1777501758 | 7.78° C | 81% | 989.2 hPa | - | - | - | - |
| 1777500858 | 7.78° C | 81% | 989.2 hPa | - | - | - | - |
| 1777499958 | 7.78° C | 86% | 989.1 hPa | - | - | - | - |
| 1777499058 | 7.22° C | 95% | 989 hPa | - | - | - | - |
| 1777498158 | 7.78° C | 95% | 989.1 hPa | - | - | - | - |
| 1777497258 | 7.78° C | 94% | 989 hPa | - | - | - | - |
| 1777496358 | 7.78° C | 91% | 989 hPa | - | - | - | - |
| 1777495458 | 8.33° C | 86% | 988.9 hPa | - | - | - | - |
| 1777494557 | 8.33° C | 85% | 988.8 hPa | - | - | - | - |
| 1777493657 | 8.33° C | 81% | 988.8 hPa | - | - | - | - |
| 1777492757 | 8.89° C | 75% | 988.6 hPa | - | - | - | - |
| 1777491857 | 8.89° C | 77% | 988.6 hPa | - | - | - | - |
| 1777490957 | 9.44° C | 71% | 988.3 hPa | - | - | - | - |
| 1777490057 | 10° C | 68% | 988.1 hPa | - | - | - | - |
| 1777489157 | 10° C | 61% | 987.9 hPa | - | - | - | - |
| 1777488257 | 10.56° C | 63% | 987.7 hPa | - | - | - | - |
| 1777487357 | 11.11° C | 55% | 987.7 hPa | - | - | - | - |
* Rain since midnight (hover to see other rain measurements)
** Current wind speed in m/s (hover to see current wind gust speed)